Dublin, New Hampshire
Current Conditions -  °F | °C
As of 3:52 PM on Thursday 18 Dec 2014 (Local Time) from KAFN Reporting Station
Broken Clouds Broken Clouds  
Wind Chill: 27°   Ceiling: 2800
Heat Index: 35°   Visibility: 10mi
Dew Point: 26°   Wind: 12mph
Humidity: 70%   Direction: 290°WNW
Pressure: 29.79"   Gusts: 22mph
Location:  42.91°N, 72.06°W
Report Text: KAFN 182052Z AUTO 29010G19KT 10SM BKN028 02/M03 A2979 RMK AO2 SLP103 T00171033 53013
Loading
Personal Weather Stations






























Interactive Weather Map New forecast layout! Learn more

10-Day Weather Forecast

Advertisements
Track Severe Weather on mobile